sensor_id;sensor_type;location;lat;lon;timestamp;temperature;humidity
62363;DHT22;48396;48.426;1.500;2022-07-18T00:00:46;30.10;39.20
62363;DHT22;48396;48.426;1.500;2022-07-18T00:03:12;30.10;39.30
62363;DHT22;48396;48.426;1.500;2022-07-18T00:05:37;30.00;39.30
62363;DHT22;48396;48.426;1.500;2022-07-18T00:08:03;30.00;39.10
62363;DHT22;48396;48.426;1.500;2022-07-18T00:10:29;29.90;38.70
62363;DHT22;48396;48.426;1.500;2022-07-18T00:12:54;29.70;38.80
62363;DHT22;48396;48.426;1.500;2022-07-18T00:15:20;29.50;38.90
62363;DHT22;48396;48.426;1.500;2022-07-18T00:17:46;29.50;39.00
62363;DHT22;48396;48.426;1.500;2022-07-18T00:20:11;29.30;39.00
62363;DHT22;48396;48.426;1.500;2022-07-18T00:22:37;29.00;39.30
62363;DHT22;48396;48.426;1.500;2022-07-18T00:25:03;28.70;39.60
62363;DHT22;48396;48.426;1.500;2022-07-18T00:27:29;28.60;39.70
62363;DHT22;48396;48.426;1.500;2022-07-18T00:29:54;28.70;39.60
62363;DHT22;48396;48.426;1.500;2022-07-18T00:32:20;28.90;39.40
62363;DHT22;48396;48.426;1.500;2022-07-18T00:34:46;29.10;39.10
62363;DHT22;48396;48.426;1.500;2022-07-18T00:37:11;29.20;38.90
62363;DHT22;48396;48.426;1.500;2022-07-18T00:39:37;29.20;38.70
62363;DHT22;48396;48.426;1.500;2022-07-18T00:42:02;29.30;38.70
62363;DHT22;48396;48.426;1.500;2022-07-18T00:44:28;29.30;38.60
62363;DHT22;48396;48.426;1.500;2022-07-18T00:46:55;29.30;38.60
62363;DHT22;48396;48.426;1.500;2022-07-18T00:49:21;29.30;38.70
62363;DHT22;48396;48.426;1.500;2022-07-18T00:51:47;29.20;38.80
62363;DHT22;48396;48.426;1.500;2022-07-18T00:54:13;29.00;39.00
62363;DHT22;48396;48.426;1.500;2022-07-18T00:56:39;28.80;39.30
62363;DHT22;48396;48.426;1.500;2022-07-18T00:59:05;28.70;39.40
62363;DHT22;48396;48.426;1.500;2022-07-18T01:01:30;28.80;39.40
62363;DHT22;48396;48.426;1.500;2022-07-18T01:04:09;28.80;39.30
62363;DHT22;48396;48.426;1.500;2022-07-18T01:06:35;28.90;39.20
62363;DHT22;48396;48.426;1.500;2022-07-18T01:09:01;29.00;39.20
62363;DHT22;48396;48.426;1.500;2022-07-18T01:11:27;29.10;39.20
62363;DHT22;48396;48.426;1.500;2022-07-18T01:13:53;28.90;39.70
62363;DHT22;48396;48.426;1.500;2022-07-18T01:16:18;28.80;39.30
62363;DHT22;48396;48.426;1.500;2022-07-18T01:18:48;28.60;39.30
62363;DHT22;48396;48.426;1.500;2022-07-18T01:21:14;28.60;39.50
62363;DHT22;48396;48.426;1.500;2022-07-18T01:23:39;28.60;39.30
62363;DHT22;48396;48.426;1.500;2022-07-18T01:26:05;28.40;39.50
62363;DHT22;48396;48.426;1.500;2022-07-18T01:28:31;28.10;39.90
62363;DHT22;48396;48.426;1.500;2022-07-18T01:30:56;27.90;40.10
62363;DHT22;48396;48.426;1.500;2022-07-18T01:33:22;27.70;40.40
62363;DHT22;48396;48.426;1.500;2022-07-18T01:35:47;27.60;40.70
62363;DHT22;48396;48.426;1.500;2022-07-18T01:38:13;27.50;40.70
62363;DHT22;48396;48.426;1.500;2022-07-18T01:40:39;27.40;40.70
62363;DHT22;48396;48.426;1.500;2022-07-18T01:43:05;27.40;40.80
62363;DHT22;48396;48.426;1.500;2022-07-18T01:45:30;27.40;41.10
62363;DHT22;48396;48.426;1.500;2022-07-18T01:47:56;27.40;40.80
62363;DHT22;48396;48.426;1.500;2022-07-18T01:50:21;27.50;40.80
62363;DHT22;48396;48.426;1.500;2022-07-18T01:52:47;27.50;40.70
62363;DHT22;48396;48.426;1.500;2022-07-18T01:55:14;27.60;40.60
62363;DHT22;48396;48.426;1.500;2022-07-18T01:57:39;27.70;40.60
62363;DHT22;48396;48.426;1.500;2022-07-18T02:00:06;27.80;40.30
62363;DHT22;48396;48.426;1.500;2022-07-18T02:02:33;28.00;40.10
62363;DHT22;48396;48.426;1.500;2022-07-18T02:04:58;28.20;39.90
62363;DHT22;48396;48.426;1.500;2022-07-18T02:07:29;28.30;39.70
62363;DHT22;48396;48.426;1.500;2022-07-18T02:09:55;28.30;39.60
62363;DHT22;48396;48.426;1.500;2022-07-18T02:12:21;28.30;39.50
62363;DHT22;48396;48.426;1.500;2022-07-18T02:14:46;28.30;39.50
62363;DHT22;48396;48.426;1.500;2022-07-18T02:17:12;28.30;39.60
62363;DHT22;48396;48.426;1.500;2022-07-18T02:19:37;28.30;39.50
62363;DHT22;48396;48.426;1.500;2022-07-18T02:22:03;28.30;39.70
62363;DHT22;48396;48.426;1.500;2022-07-18T02:24:28;28.30;39.80
62363;DHT22;48396;48.426;1.500;2022-07-18T02:26:54;28.30;39.70
62363;DHT22;48396;48.426;1.500;2022-07-18T02:29:20;28.30;39.70
62363;DHT22;48396;48.426;1.500;2022-07-18T02:31:45;28.20;39.80
62363;DHT22;48396;48.426;1.500;2022-07-18T02:34:11;28.20;39.90
62363;DHT22;48396;48.426;1.500;2022-07-18T02:36:37;28.20;39.70
62363;DHT22;48396;48.426;1.500;2022-07-18T02:39:04;28.30;39.80
62363;DHT22;48396;48.426;1.500;2022-07-18T02:41:30;28.30;39.80
62363;DHT22;48396;48.426;1.500;2022-07-18T02:43:55;28.10;39.70
62363;DHT22;48396;48.426;1.500;2022-07-18T02:46:21;27.80;40.00
62363;DHT22;48396;48.426;1.500;2022-07-18T02:48:46;27.50;40.70
62363;DHT22;48396;48.426;1.500;2022-07-18T02:51:12;27.10;40.90
62363;DHT22;48396;48.426;1.500;2022-07-18T02:53:38;27.10;41.00
62363;DHT22;48396;48.426;1.500;2022-07-18T02:56:03;27.10;41.10
62363;DHT22;48396;48.426;1.500;2022-07-18T02:58:29;27.10;41.10
62363;DHT22;48396;48.426;1.500;2022-07-18T03:00:55;27.10;41.10
62363;DHT22;48396;48.426;1.500;2022-07-18T03:03:20;26.90;41.20
62363;DHT22;48396;48.426;1.500;2022-07-18T03:05:46;27.00;41.20
62363;DHT22;48396;48.426;1.500;2022-07-18T03:08:11;27.10;41.10
62363;DHT22;48396;48.426;1.500;2022-07-18T03:10:37;27.10;41.10
62363;DHT22;48396;48.426;1.500;2022-07-18T03:13:02;27.00;41.10
62363;DHT22;48396;48.426;1.500;2022-07-18T03:15:28;26.90;41.10
62363;DHT22;48396;48.426;1.500;2022-07-18T03:17:54;26.80;41.30
62363;DHT22;48396;48.426;1.500;2022-07-18T03:20:19;26.70;41.40
62363;DHT22;48396;48.426;1.500;2022-07-18T03:22:45;26.90;41.40
62363;DHT22;48396;48.426;1.500;2022-07-18T03:25:10;26.80;41.30
62363;DHT22;48396;48.426;1.500;2022-07-18T03:27:36;26.90;41.40
62363;DHT22;48396;48.426;1.500;2022-07-18T03:30:02;26.90;41.20
62363;DHT22;48396;48.426;1.500;2022-07-18T03:32:28;27.10;41.10
62363;DHT22;48396;48.426;1.500;2022-07-18T03:34:54;27.10;40.90
62363;DHT22;48396;48.426;1.500;2022-07-18T03:37:20;27.10;40.90
62363;DHT22;48396;48.426;1.500;2022-07-18T03:39:45;27.10;40.90
62363;DHT22;48396;48.426;1.500;2022-07-18T03:42:11;27.00;40.90
62363;DHT22;48396;48.426;1.500;2022-07-18T03:44:37;26.90;41.00
62363;DHT22;48396;48.426;1.500;2022-07-18T03:47:02;26.50;41.40
62363;DHT22;48396;48.426;1.500;2022-07-18T03:49:28;26.50;41.50
62363;DHT22;48396;48.426;1.500;2022-07-18T03:51:53;26.50;41.50
62363;DHT22;48396;48.426;1.500;2022-07-18T03:54:21;26.70;41.40
62363;DHT22;48396;48.426;1.500;2022-07-18T03:56:47;26.80;41.30
62363;DHT22;48396;48.426;1.500;2022-07-18T03:59:12;26.70;41.20
62363;DHT22;48396;48.426;1.500;2022-07-18T04:01:38;26.70;41.30
62363;DHT22;48396;48.426;1.500;2022-07-18T04:04:03;26.60;41.40
62363;DHT22;48396;48.426;1.500;2022-07-18T04:06:29;26.50;42.10
62363;DHT22;48396;48.426;1.500;2022-07-18T04:08:55;26.40;41.60
62363;DHT22;48396;48.426;1.500;2022-07-18T04:11:21;26.50;41.60
62363;DHT22;48396;48.426;1.500;2022-07-18T04:13:53;26.40;41.60
62363;DHT22;48396;48.426;1.500;2022-07-18T04:16:18;26.40;41.70
62363;DHT22;48396;48.426;1.500;2022-07-18T04:18:44;26.50;41.50
62363;DHT22;48396;48.426;1.500;2022-07-18T04:21:10;26.70;41.30
62363;DHT22;48396;48.426;1.500;2022-07-18T04:23:35;26.90;41.20
62363;DHT22;48396;48.426;1.500;2022-07-18T04:26:01;26.90;41.10
62363;DHT22;48396;48.426;1.500;2022-07-18T04:28:29;27.00;41.00
62363;DHT22;48396;48.426;1.500;2022-07-18T04:30:55;27.00;41.40
62363;DHT22;48396;48.426;1.500;2022-07-18T04:33:20;27.00;42.00
62363;DHT22;48396;48.426;1.500;2022-07-18T04:35:47;27.00;41.90
62363;DHT22;48396;48.426;1.500;2022-07-18T04:38:12;27.00;42.00
62363;DHT22;48396;48.426;1.500;2022-07-18T04:40:38;27.00;42.40
62363;DHT22;48396;48.426;1.500;2022-07-18T04:43:04;27.00;41.80
62363;DHT22;48396;48.426;1.500;2022-07-18T04:45:29;26.90;41.60
62363;DHT22;48396;48.426;1.500;2022-07-18T04:47:55;26.70;41.50
62363;DHT22;48396;48.426;1.500;2022-07-18T04:50:21;26.80;41.50
62363;DHT22;48396;48.426;1.500;2022-07-18T04:52:47;26.90;41.40
62363;DHT22;48396;48.426;1.500;2022-07-18T04:55:13;26.90;41.50
62363;DHT22;48396;48.426;1.500;2022-07-18T04:57:39;27.00;41.60
62363;DHT22;48396;48.426;1.500;2022-07-18T05:00:09;27.00;41.40
62363;DHT22;48396;48.426;1.500;2022-07-18T05:02:35;27.00;41.30
62363;DHT22;48396;48.426;1.500;2022-07-18T05:05:00;27.10;41.20
62363;DHT22;48396;48.426;1.500;2022-07-18T05:07:26;27.10;41.10
62363;DHT22;48396;48.426;1.500;2022-07-18T05:09:51;27.00;41.20
62363;DHT22;48396;48.426;1.500;2022-07-18T05:12:17;27.00;41.20
62363;DHT22;48396;48.426;1.500;2022-07-18T05:14:44;27.00;41.30
62363;DHT22;48396;48.426;1.500;2022-07-18T05:17:09;27.00;41.20
62363;DHT22;48396;48.426;1.500;2022-07-18T05:19:35;26.90;41.20
62363;DHT22;48396;48.426;1.500;2022-07-18T05:22:00;26.80;41.20
62363;DHT22;48396;48.426;1.500;2022-07-18T05:24:26;26.80;41.30
62363;DHT22;48396;48.426;1.500;2022-07-18T05:26:52;26.80;41.30
62363;DHT22;48396;48.426;1.500;2022-07-18T05:29:17;26.90;41.30
62363;DHT22;48396;48.426;1.500;2022-07-18T05:31:43;26.90;41.40
62363;DHT22;48396;48.426;1.500;2022-07-18T05:34:08;27.00;41.30
62363;DHT22;48396;48.426;1.500;2022-07-18T05:36:34;27.00;41.30
62363;DHT22;48396;48.426;1.500;2022-07-18T05:39:00;27.00;41.30
62363;DHT22;48396;48.426;1.500;2022-07-18T05:41:26;27.10;41.40
62363;DHT22;48396;48.426;1.500;2022-07-18T05:46:20;27.10;41.30
62363;DHT22;48396;48.426;1.500;2022-07-18T05:48:46;27.10;41.30
62363;DHT22;48396;48.426;1.500;2022-07-18T05:51:12;27.10;41.30
62363;DHT22;48396;48.426;1.500;2022-07-18T05:53:37;27.00;41.40
62363;DHT22;48396;48.426;1.500;2022-07-18T05:56:03;27.00;41.50
62363;DHT22;48396;48.426;1.500;2022-07-18T05:58:29;27.00;41.50
62363;DHT22;48396;48.426;1.500;2022-07-18T06:00:55;27.00;41.50
62363;DHT22;48396;48.426;1.500;2022-07-18T06:03:20;27.10;41.50
62363;DHT22;48396;48.426;1.500;2022-07-18T06:05:46;27.10;41.50
62363;DHT22;48396;48.426;1.500;2022-07-18T06:08:11;27.10;41.50
62363;DHT22;48396;48.426;1.500;2022-07-18T06:10:37;27.10;41.60
62363;DHT22;48396;48.426;1.500;2022-07-18T06:13:03;27.00;41.70
62363;DHT22;48396;48.426;1.500;2022-07-18T06:15:28;26.90;41.80
62363;DHT22;48396;48.426;1.500;2022-07-18T06:17:54;27.00;42.00
62363;DHT22;48396;48.426;1.500;2022-07-18T06:20:20;27.10;41.90
62363;DHT22;48396;48.426;1.500;2022-07-18T06:22:45;27.30;41.90
62363;DHT22;48396;48.426;1.500;2022-07-18T06:25:11;27.40;41.90
62363;DHT22;48396;48.426;1.500;2022-07-18T06:27:37;27.40;41.90
62363;DHT22;48396;48.426;1.500;2022-07-18T06:30:03;27.50;42.00
62363;DHT22;48396;48.426;1.500;2022-07-18T06:32:30;27.30;42.10
62363;DHT22;48396;48.426;1.500;2022-07-18T06:34:55;27.20;42.30
62363;DHT22;48396;48.426;1.500;2022-07-18T06:37:21;27.20;42.40
62363;DHT22;48396;48.426;1.500;2022-07-18T06:39:47;27.20;42.40
62363;DHT22;48396;48.426;1.500;2022-07-18T06:42:12;27.20;42.50
62363;DHT22;48396;48.426;1.500;2022-07-18T06:44:38;27.20;42.40
62363;DHT22;48396;48.426;1.500;2022-07-18T06:47:03;27.30;42.30
62363;DHT22;48396;48.426;1.500;2022-07-18T06:49:29;27.40;42.00
62363;DHT22;48396;48.426;1.500;2022-07-18T06:51:55;27.50;41.80
62363;DHT22;48396;48.426;1.500;2022-07-18T06:54:20;27.50;41.60
62363;DHT22;48396;48.426;1.500;2022-07-18T06:56:51;27.40;41.60
62363;DHT22;48396;48.426;1.500;2022-07-18T06:59:17;27.50;41.70
62363;DHT22;48396;48.426;1.500;2022-07-18T07:01:42;27.50;41.70
62363;DHT22;48396;48.426;1.500;2022-07-18T07:04:08;27.70;41.70
62363;DHT22;48396;48.426;1.500;2022-07-18T07:06:34;27.80;41.70
62363;DHT22;48396;48.426;1.500;2022-07-18T07:09:02;27.80;41.70
62363;DHT22;48396;48.426;1.500;2022-07-18T07:11:27;27.80;41.70
62363;DHT22;48396;48.426;1.500;2022-07-18T07:13:53;27.90;41.60
62363;DHT22;48396;48.426;1.500;2022-07-18T07:16:18;28.00;41.30
62363;DHT22;48396;48.426;1.500;2022-07-18T07:18:44;28.00;41.10
62363;DHT22;48396;48.426;1.500;2022-07-18T07:21:09;28.10;41.20
62363;DHT22;48396;48.426;1.500;2022-07-18T07:23:35;28.00;41.20
62363;DHT22;48396;48.426;1.500;2022-07-18T07:26:01;28.10;41.20
62363;DHT22;48396;48.426;1.500;2022-07-18T07:28:26;28.30;41.20
62363;DHT22;48396;48.426;1.500;2022-07-18T07:30:52;28.30;41.20
62363;DHT22;48396;48.426;1.500;2022-07-18T07:33:17;28.30;41.20
62363;DHT22;48396;48.426;1.500;2022-07-18T07:35:43;28.40;41.20
62363;DHT22;48396;48.426;1.500;2022-07-18T07:38:09;28.50;41.20
62363;DHT22;48396;48.426;1.500;2022-07-18T07:40:35;28.60;41.10
62363;DHT22;48396;48.426;1.500;2022-07-18T07:43:08;28.60;40.90
62363;DHT22;48396;48.426;1.500;2022-07-18T07:45:34;28.70;40.90
62363;DHT22;48396;48.426;1.500;2022-07-18T07:48:00;28.70;40.70
62363;DHT22;48396;48.426;1.500;2022-07-18T07:50:25;28.70;40.50
62363;DHT22;48396;48.426;1.500;2022-07-18T07:52:51;28.70;40.40
62363;DHT22;48396;48.426;1.500;2022-07-18T07:55:16;28.80;40.20
62363;DHT22;48396;48.426;1.500;2022-07-18T07:57:42;28.80;40.00
62363;DHT22;48396;48.426;1.500;2022-07-18T08:00:08;28.80;40.00
62363;DHT22;48396;48.426;1.500;2022-07-18T08:02:35;28.80;39.40
62363;DHT22;48396;48.426;1.500;2022-07-18T08:05:00;28.90;39.80
62363;DHT22;48396;48.426;1.500;2022-07-18T08:07:26;29.00;40.00
62363;DHT22;48396;48.426;1.500;2022-07-18T08:09:52;29.10;40.10
62363;DHT22;48396;48.426;1.500;2022-07-18T08:12:17;29.10;40.10
62363;DHT22;48396;48.426;1.500;2022-07-18T08:14:43;29.20;39.90
62363;DHT22;48396;48.426;1.500;2022-07-18T08:17:09;29.20;39.80
62363;DHT22;48396;48.426;1.500;2022-07-18T08:19:34;29.30;39.50
62363;DHT22;48396;48.426;1.500;2022-07-18T08:22:00;29.30;38.90
62363;DHT22;48396;48.426;1.500;2022-07-18T08:24:25;29.40;39.00
62363;DHT22;48396;48.426;1.500;2022-07-18T08:26:51;29.40;38.60
62363;DHT22;48396;48.426;1.500;2022-07-18T08:29:17;29.50;38.90
62363;DHT22;48396;48.426;1.500;2022-07-18T08:31:42;29.50;39.10
62363;DHT22;48396;48.426;1.500;2022-07-18T08:34:08;29.60;38.90
62363;DHT22;48396;48.426;1.500;2022-07-18T08:36:33;29.70;38.80
62363;DHT22;48396;48.426;1.500;2022-07-18T08:38:59;29.80;38.80
62363;DHT22;48396;48.426;1.500;2022-07-18T08:41:25;29.70;38.10
62363;DHT22;48396;48.426;1.500;2022-07-18T08:43:55;29.80;38.10
62363;DHT22;48396;48.426;1.500;2022-07-18T08:46:21;29.90;38.10
62363;DHT22;48396;48.426;1.500;2022-07-18T08:48:47;29.90;37.60
62363;DHT22;48396;48.426;1.500;2022-07-18T08:51:13;30.00;37.70
62363;DHT22;48396;48.426;1.500;2022-07-18T08:53:39;30.10;37.60
62363;DHT22;48396;48.426;1.500;2022-07-18T08:56:05;30.10;36.80
62363;DHT22;48396;48.426;1.500;2022-07-18T08:58:31;30.10;37.10
62363;DHT22;48396;48.426;1.500;2022-07-18T09:00:57;30.10;36.50
62363;DHT22;48396;48.426;1.500;2022-07-18T09:03:26;30.20;36.60
62363;DHT22;48396;48.426;1.500;2022-07-18T09:08:30;30.30;36.10
62363;DHT22;48396;48.426;1.500;2022-07-18T09:10:56;30.30;35.70
62363;DHT22;48396;48.426;1.500;2022-07-18T09:13:23;30.40;35.60
62363;DHT22;48396;48.426;1.500;2022-07-18T09:18:34;30.50;34.80
62363;DHT22;48396;48.426;1.500;2022-07-18T09:21:07;30.50;35.20
62363;DHT22;48396;48.426;1.500;2022-07-18T09:23:33;30.70;36.10
62363;DHT22;48396;48.426;1.500;2022-07-18T09:25:59;30.80;35.40
62363;DHT22;48396;48.426;1.500;2022-07-18T09:28:25;30.80;35.20
62363;DHT22;48396;48.426;1.500;2022-07-18T09:30:52;30.80;34.90
62363;DHT22;48396;48.426;1.500;2022-07-18T09:33:18;30.90;35.00
62363;DHT22;48396;48.426;1.500;2022-07-18T09:35:49;30.90;35.00
62363;DHT22;48396;48.426;1.500;2022-07-18T09:38:16;31.00;34.90
62363;DHT22;48396;48.426;1.500;2022-07-18T09:40:44;31.00;34.60
62363;DHT22;48396;48.426;1.500;2022-07-18T09:43:10;31.00;34.50
62363;DHT22;48396;48.426;1.500;2022-07-18T09:48:06;31.20;35.10
62363;DHT22;48396;48.426;1.500;2022-07-18T09:50:36;31.20;34.50
62363;DHT22;48396;48.426;1.500;2022-07-18T09:53:06;31.30;34.60
62363;DHT22;48396;48.426;1.500;2022-07-18T09:55:32;31.30;34.40
62363;DHT22;48396;48.426;1.500;2022-07-18T09:57:59;31.40;34.70
62363;DHT22;48396;48.426;1.500;2022-07-18T10:00:27;31.50;34.60
62363;DHT22;48396;48.426;1.500;2022-07-18T10:02:54;31.60;34.20
62363;DHT22;48396;48.426;1.500;2022-07-18T10:05:19;31.60;33.90
62363;DHT22;48396;48.426;1.500;2022-07-18T10:07:45;31.70;34.00
62363;DHT22;48396;48.426;1.500;2022-07-18T10:10:13;31.80;33.70
62363;DHT22;48396;48.426;1.500;2022-07-18T10:12:39;31.80;32.50
62363;DHT22;48396;48.426;1.500;2022-07-18T10:15:05;31.90;32.90
62363;DHT22;48396;48.426;1.500;2022-07-18T10:17:31;31.90;32.40
62363;DHT22;48396;48.426;1.500;2022-07-18T10:20:02;32.00;32.50
62363;DHT22;48396;48.426;1.500;2022-07-18T10:22:27;32.10;32.00
62363;DHT22;48396;48.426;1.500;2022-07-18T10:24:53;32.10;32.10
62363;DHT22;48396;48.426;1.500;2022-07-18T10:27:20;32.10;31.40
62363;DHT22;48396;48.426;1.500;2022-07-18T10:32:33;32.20;32.00
62363;DHT22;48396;48.426;1.500;2022-07-18T10:34:59;32.30;32.50
62363;DHT22;48396;48.426;1.500;2022-07-18T10:37:24;32.50;32.70
62363;DHT22;48396;48.426;1.500;2022-07-18T10:39:50;32.60;32.10
62363;DHT22;48396;48.426;1.500;2022-07-18T10:42:16;32.60;31.50
62363;DHT22;48396;48.426;1.500;2022-07-18T10:44:44;32.70;31.70
62363;DHT22;48396;48.426;1.500;2022-07-18T10:47:13;32.70;31.50
62363;DHT22;48396;48.426;1.500;2022-07-18T10:57:42;33.00;30.60
62363;DHT22;48396;48.426;1.500;2022-07-18T11:00:12;33.10;30.60
62363;DHT22;48396;48.426;1.500;2022-07-18T11:02:45;33.10;30.90
62363;DHT22;48396;48.426;1.500;2022-07-18T11:15:55;33.20;30.00
62363;DHT22;48396;48.426;1.500;2022-07-18T11:18:21;33.30;29.70
62363;DHT22;48396;48.426;1.500;2022-07-18T11:20:47;33.30;29.60
62363;DHT22;48396;48.426;1.500;2022-07-18T11:23:22;33.40;29.80
62363;DHT22;48396;48.426;1.500;2022-07-18T11:25:49;33.50;29.90
62363;DHT22;48396;48.426;1.500;2022-07-18T11:28:15;33.60;29.60
62363;DHT22;48396;48.426;1.500;2022-07-18T11:30:41;33.70;29.80
62363;DHT22;48396;48.426;1.500;2022-07-18T11:33:29;33.70;29.50
62363;DHT22;48396;48.426;1.500;2022-07-18T11:36:07;33.70;29.80
62363;DHT22;48396;48.426;1.500;2022-07-18T11:38:34;33.70;30.00
62363;DHT22;48396;48.426;1.500;2022-07-18T11:41:00;33.70;30.10
62363;DHT22;48396;48.426;1.500;2022-07-18T11:43:27;33.80;30.30
62363;DHT22;48396;48.426;1.500;2022-07-18T11:46:00;33.90;31.00
62363;DHT22;48396;48.426;1.500;2022-07-18T11:48:26;34.00;30.30
62363;DHT22;48396;48.426;1.500;2022-07-18T11:50:52;34.00;30.20
62363;DHT22;48396;48.426;1.500;2022-07-18T11:53:17;34.00;30.50
62363;DHT22;48396;48.426;1.500;2022-07-18T11:55:43;34.10;30.30
62363;DHT22;48396;48.426;1.500;2022-07-18T11:58:09;34.20;30.20
62363;DHT22;48396;48.426;1.500;2022-07-18T12:00:35;34.30;30.20
62363;DHT22;48396;48.426;1.500;2022-07-18T12:03:20;34.40;30.00
62363;DHT22;48396;48.426;1.500;2022-07-18T12:05:49;34.40;30.00
62363;DHT22;48396;48.426;1.500;2022-07-18T12:11:07;34.40;30.00
62363;DHT22;48396;48.426;1.500;2022-07-18T12:13:44;34.40;29.90
62363;DHT22;48396;48.426;1.500;2022-07-18T12:16:30;34.50;30.00
62363;DHT22;48396;48.426;1.500;2022-07-18T12:32:21;34.70;29.90
62363;DHT22;48396;48.426;1.500;2022-07-18T12:35:21;34.80;30.00
62363;DHT22;48396;48.426;1.500;2022-07-18T12:37:40;34.90;30.00
62363;DHT22;48396;48.426;1.500;2022-07-18T12:40:07;34.90;30.00
62363;DHT22;48396;48.426;1.500;2022-07-18T12:42:39;35.00;30.00
62363;DHT22;48396;48.426;1.500;2022-07-18T12:45:06;35.10;29.80
62363;DHT22;48396;48.426;1.500;2022-07-18T12:47:32;35.20;30.00
62363;DHT22;48396;48.426;1.500;2022-07-18T12:49:58;35.20;30.00
62363;DHT22;48396;48.426;1.500;2022-07-18T12:52:24;35.40;29.80
62363;DHT22;48396;48.426;1.500;2022-07-18T12:54:50;35.40;29.70
62363;DHT22;48396;48.426;1.500;2022-07-18T12:57:16;35.40;29.70
62363;DHT22;48396;48.426;1.500;2022-07-18T12:59:42;35.40;29.70
62363;DHT22;48396;48.426;1.500;2022-07-18T13:02:08;35.50;29.90
62363;DHT22;48396;48.426;1.500;2022-07-18T13:04:34;35.50;29.70
62363;DHT22;48396;48.426;1.500;2022-07-18T13:07:00;35.50;29.70
62363;DHT22;48396;48.426;1.500;2022-07-18T13:09:26;35.60;29.70
62363;DHT22;48396;48.426;1.500;2022-07-18T13:11:51;35.60;29.80
62363;DHT22;48396;48.426;1.500;2022-07-18T13:14:17;35.80;30.00
62363;DHT22;48396;48.426;1.500;2022-07-18T13:16:44;35.90;30.00
62363;DHT22;48396;48.426;1.500;2022-07-18T13:19:13;36.10;30.00
62363;DHT22;48396;48.426;1.500;2022-07-18T13:21:40;36.10;29.80
62363;DHT22;48396;48.426;1.500;2022-07-18T13:24:06;36.20;29.70
62363;DHT22;48396;48.426;1.500;2022-07-18T13:26:32;36.10;29.60
62363;DHT22;48396;48.426;1.500;2022-07-18T13:28:57;36.20;29.80
62363;DHT22;48396;48.426;1.500;2022-07-18T13:31:23;36.20;29.90
62363;DHT22;48396;48.426;1.500;2022-07-18T13:33:48;36.30;30.00
62363;DHT22;48396;48.426;1.500;2022-07-18T13:36:16;36.30;30.10
62363;DHT22;48396;48.426;1.500;2022-07-18T13:38:41;36.40;30.00
62363;DHT22;48396;48.426;1.500;2022-07-18T13:41:08;36.40;29.90
62363;DHT22;48396;48.426;1.500;2022-07-18T13:43:35;36.50;29.80
62363;DHT22;48396;48.426;1.500;2022-07-18T13:46:06;36.50;29.60
62363;DHT22;48396;48.426;1.500;2022-07-18T13:48:31;36.50;29.70
62363;DHT22;48396;48.426;1.500;2022-07-18T13:50:57;36.50;29.70
62363;DHT22;48396;48.426;1.500;2022-07-18T13:53:23;36.50;29.90
62363;DHT22;48396;48.426;1.500;2022-07-18T13:55:49;36.50;29.70
62363;DHT22;48396;48.426;1.500;2022-07-18T13:58:14;36.60;29.80
62363;DHT22;48396;48.426;1.500;2022-07-18T14:00:40;36.70;29.60
62363;DHT22;48396;48.426;1.500;2022-07-18T14:03:06;36.90;29.80
62363;DHT22;48396;48.426;1.500;2022-07-18T14:05:33;36.90;29.40
62363;DHT22;48396;48.426;1.500;2022-07-18T14:07:59;37.00;29.40
62363;DHT22;48396;48.426;1.500;2022-07-18T14:10:25;36.90;29.50
62363;DHT22;48396;48.426;1.500;2022-07-18T14:12:50;36.90;29.50
62363;DHT22;48396;48.426;1.500;2022-07-18T14:15:16;36.90;29.50
62363;DHT22;48396;48.426;1.500;2022-07-18T14:17:42;36.90;29.50
62363;DHT22;48396;48.426;1.500;2022-07-18T14:20:08;36.90;29.50
62363;DHT22;48396;48.426;1.500;2022-07-18T14:22:34;37.00;29.50
62363;DHT22;48396;48.426;1.500;2022-07-18T14:25:00;37.10;29.50
62363;DHT22;48396;48.426;1.500;2022-07-18T14:27:26;37.20;29.30
62363;DHT22;48396;48.426;1.500;2022-07-18T14:29:52;37.30;29.30
62363;DHT22;48396;48.426;1.500;2022-07-18T14:32:18;37.30;29.30
62363;DHT22;48396;48.426;1.500;2022-07-18T14:34:43;37.30;29.40
62363;DHT22;48396;48.426;1.500;2022-07-18T14:37:09;37.40;29.50
62363;DHT22;48396;48.426;1.500;2022-07-18T14:39:34;37.50;29.30
62363;DHT22;48396;48.426;1.500;2022-07-18T14:42:00;37.60;29.40
62363;DHT22;48396;48.426;1.500;2022-07-18T14:44:26;37.60;29.30
62363;DHT22;48396;48.426;1.500;2022-07-18T14:46:52;37.60;29.30
62363;DHT22;48396;48.426;1.500;2022-07-18T14:49:18;37.70;29.30
62363;DHT22;48396;48.426;1.500;2022-07-18T14:51:44;37.70;29.30
62363;DHT22;48396;48.426;1.500;2022-07-18T14:54:09;37.80;29.30
62363;DHT22;48396;48.426;1.500;2022-07-18T14:56:37;37.90;29.20
62363;DHT22;48396;48.426;1.500;2022-07-18T14:59:02;37.90;29.30
62363;DHT22;48396;48.426;1.500;2022-07-18T15:01:28;38.00;29.40
62363;DHT22;48396;48.426;1.500;2022-07-18T15:03:57;38.00;29.30
62363;DHT22;48396;48.426;1.500;2022-07-18T15:06:22;38.00;29.10
62363;DHT22;48396;48.426;1.500;2022-07-18T15:08:48;38.10;29.10
62363;DHT22;48396;48.426;1.500;2022-07-18T15:11:14;38.20;29.00
62363;DHT22;48396;48.426;1.500;2022-07-18T15:13:43;38.20;29.00
62363;DHT22;48396;48.426;1.500;2022-07-18T15:16:09;38.20;29.00
62363;DHT22;48396;48.426;1.500;2022-07-18T15:18:34;38.20;28.90
62363;DHT22;48396;48.426;1.500;2022-07-18T15:21:00;38.20;28.90
62363;DHT22;48396;48.426;1.500;2022-07-18T15:23:26;38.20;29.00
62363;DHT22;48396;48.426;1.500;2022-07-18T15:25:51;38.30;29.20
62363;DHT22;48396;48.426;1.500;2022-07-18T15:28:17;38.40;29.20
62363;DHT22;48396;48.426;1.500;2022-07-18T15:30:42;38.40;29.10
62363;DHT22;48396;48.426;1.500;2022-07-18T15:33:08;38.50;29.00
62363;DHT22;48396;48.426;1.500;2022-07-18T15:35:33;38.60;29.10
62363;DHT22;48396;48.426;1.500;2022-07-18T15:37:59;38.60;29.10
62363;DHT22;48396;48.426;1.500;2022-07-18T15:40:25;38.70;29.10
62363;DHT22;48396;48.426;1.500;2022-07-18T15:42:51;38.80;29.10
62363;DHT22;48396;48.426;1.500;2022-07-18T15:45:16;38.80;29.00
62363;DHT22;48396;48.426;1.500;2022-07-18T15:47:42;38.90;29.00
62363;DHT22;48396;48.426;1.500;2022-07-18T15:50:08;38.90;28.90
62363;DHT22;48396;48.426;1.500;2022-07-18T15:52:34;39.00;28.90
62363;DHT22;48396;48.426;1.500;2022-07-18T15:55:02;38.90;28.80
62363;DHT22;48396;48.426;1.500;2022-07-18T15:57:27;39.00;28.70
62363;DHT22;48396;48.426;1.500;2022-07-18T15:59:53;39.00;28.80
62363;DHT22;48396;48.426;1.500;2022-07-18T16:02:19;39.10;28.70
62363;DHT22;48396;48.426;1.500;2022-07-18T16:04:44;39.20;28.70
62363;DHT22;48396;48.426;1.500;2022-07-18T16:07:10;39.20;28.70
62363;DHT22;48396;48.426;1.500;2022-07-18T16:09:35;39.20;28.40
62363;DHT22;48396;48.426;1.500;2022-07-18T16:12:04;39.20;28.50